createdAt,value
2023-01-20T00:01:52.012Z,9.38
2023-01-20T00:04:20.050Z,9.40
2023-01-20T00:06:47.977Z,9.45
2023-01-20T00:09:18.858Z,9.60
2023-01-20T00:11:47.179Z,9.05
2023-01-20T00:14:15.155Z,9.57
2023-01-20T00:16:43.424Z,9.32
2023-01-20T00:19:13.311Z,9.05
2023-01-20T00:21:41.589Z,9.68
2023-01-20T00:24:09.627Z,10.25
2023-01-20T00:26:38.755Z,8.32
2023-01-20T00:29:06.547Z,13.20
2023-01-20T00:31:34.699Z,11.70
2023-01-20T00:34:03.421Z,10.88
2023-01-20T00:36:33.034Z,12.50
2023-01-20T00:39:02.693Z,12.70
2023-01-20T00:41:30.590Z,11.90
2023-01-20T00:43:59.788Z,13.52
2023-01-20T00:46:27.925Z,13.60
2023-01-20T00:48:55.827Z,13.23
2023-01-20T00:51:23.612Z,13.05
2023-01-20T00:53:51.561Z,14.02
2023-01-20T00:56:19.391Z,15.60
2023-01-20T00:58:47.175Z,13.13
2023-01-20T01:01:16.467Z,16.33
2023-01-20T01:03:45.303Z,15.27
2023-01-20T01:06:15.011Z,13.93
2023-01-20T01:08:43.530Z,16.08
2023-01-20T01:11:12.262Z,18.08
2023-01-20T01:13:40.440Z,18.13
2023-01-20T01:16:12.529Z,19.45
2023-01-20T01:18:42.041Z,21.52
2023-01-20T01:21:12.117Z,20.45
2023-01-20T01:23:39.922Z,23.98
2023-01-20T01:26:08.034Z,20.45
2023-01-20T01:28:35.823Z,20.35
2023-01-20T01:31:04.608Z,20.48
2023-01-20T01:33:32.796Z,19.80
2023-01-20T01:36:03.273Z,20.60
2023-01-20T01:38:31.694Z,21.70
2023-01-20T01:40:59.492Z,22.95
2023-01-20T01:43:29.642Z,21.52
2023-01-20T01:45:57.744Z,22.90
2023-01-20T01:48:29.325Z,23.48
2023-01-20T01:51:03.786Z,24.27
2023-01-20T01:53:37.872Z,30.58
2023-01-20T01:56:06.007Z,24.50
2023-01-20T01:58:36.872Z,23.48
2023-01-20T02:01:05.291Z,27.75
2023-01-20T02:03:41.176Z,27.13
2023-01-20T02:06:11.723Z,29.40
2023-01-20T02:08:39.699Z,25.52
2023-01-20T02:11:07.494Z,25.85
2023-01-20T02:13:36.310Z,28.70
2023-01-20T02:16:11.951Z,27.08
2023-01-20T02:18:52.866Z,25.67
2023-01-20T02:22:05.083Z,24.73
2023-01-20T02:25:23.462Z,26.15
2023-01-20T02:28:22.129Z,28.00
2023-01-20T02:31:10.271Z,25.90
2023-01-20T02:33:43.797Z,25.08
2023-01-20T02:36:14.402Z,31.02
2023-01-20T02:38:48.883Z,30.17
2023-01-20T02:41:22.523Z,32.38
2023-01-20T02:43:54.158Z,30.58
2023-01-20T02:46:32.116Z,31.70
2023-01-20T02:49:10.491Z,35.08
2023-01-20T02:51:44.895Z,37.45
2023-01-20T02:54:18.014Z,34.45
2023-01-20T02:56:48.434Z,33.60
2023-01-20T02:59:21.893Z,36.60
2023-01-20T03:01:54.554Z,34.25
2023-01-20T03:04:28.399Z,40.08
2023-01-20T03:06:59.023Z,37.78
2023-01-20T03:09:31.438Z,37.15
2023-01-20T03:12:04.211Z,35.08
2023-01-20T03:14:32.536Z,41.58
2023-01-20T03:17:00.454Z,42.35
2023-01-20T03:19:29.615Z,44.70
2023-01-20T03:21:57.489Z,42.55
2023-01-20T03:24:27.789Z,43.75
2023-01-20T03:26:55.574Z,41.88
2023-01-20T03:29:23.338Z,39.88
2023-01-20T03:31:55.928Z,40.58
2023-01-20T03:34:25.631Z,40.03
2023-01-20T03:36:56.042Z,40.10
2023-01-20T03:39:25.744Z,43.15
2023-01-20T03:42:05.900Z,42.70
2023-01-20T03:44:46.305Z,42.88
2023-01-20T03:47:22.708Z,46.90
2023-01-20T03:49:56.837Z,42.72
2023-01-20T03:52:47.617Z,47.22
2023-01-20T03:55:21.651Z,44.60
2023-01-20T03:57:54.405Z,48.45
2023-01-20T04:00:26.129Z,45.63
2023-01-20T04:03:00.128Z,46.40
2023-01-20T04:05:29.228Z,40.50
2023-01-20T04:08:02.941Z,61.70
2023-01-20T04:10:34.328Z,47.88
2023-01-20T04:13:02.190Z,56.35
2023-01-20T04:15:35.056Z,46.88
2023-01-20T04:18:13.176Z,48.88
2023-01-20T04:20:41.391Z,47.78
2023-01-20T04:23:18.195Z,48.10
2023-01-20T04:25:46.208Z,41.33
2023-01-20T04:28:13.990Z,47.00
2023-01-20T04:30:41.948Z,45.60
2023-01-20T04:33:09.834Z,47.95
2023-01-20T04:35:37.605Z,42.03
2023-01-20T04:38:06.516Z,45.58
2023-01-20T04:40:35.736Z,48.60
2023-01-20T04:43:03.626Z,41.88
2023-01-20T04:45:31.505Z,56.25
2023-01-20T04:47:59.433Z,46.78
2023-01-20T04:50:27.247Z,50.10
2023-01-20T04:52:56.608Z,48.08
2023-01-20T04:55:26.462Z,46.58
2023-01-20T04:57:55.614Z,44.10
2023-01-20T05:00:23.595Z,46.80
2023-01-20T05:02:51.597Z,45.25
2023-01-20T05:05:19.451Z,40.92
2023-01-20T05:07:47.285Z,43.08
2023-01-20T05:10:15.194Z,47.95
2023-01-20T05:12:42.997Z,42.40
2023-01-20T05:15:12.750Z,45.55
2023-01-20T05:17:40.697Z,41.97
2023-01-20T05:20:09.967Z,46.70
2023-01-20T05:22:37.911Z,45.58
2023-01-20T05:25:06.807Z,44.83
2023-01-20T05:27:35.647Z,46.65
2023-01-20T05:30:03.497Z,59.92
2023-01-20T05:32:32.726Z,49.58
2023-01-20T05:35:00.547Z,48.88
2023-01-20T05:37:28.328Z,45.90
2023-01-20T05:39:56.219Z,46.78
2023-01-20T05:42:24.044Z,66.40
2023-01-20T05:44:51.866Z,53.45
2023-01-20T05:47:19.753Z,51.35
2023-01-20T05:49:48.912Z,47.58
2023-01-20T05:52:16.733Z,46.92
2023-01-20T05:54:44.555Z,47.85
2023-01-20T05:57:14.465Z,51.47
2023-01-20T05:59:42.429Z,44.42
2023-01-20T06:02:11.311Z,53.70
2023-01-20T06:04:39.098Z,49.67
2023-01-20T06:07:08.278Z,49.50
2023-01-20T06:09:36.020Z,67.47
2023-01-20T06:12:03.998Z,61.85
2023-01-20T06:14:31.747Z,56.75
2023-01-20T06:16:59.544Z,54.65
2023-01-20T06:19:27.316Z,56.85
2023-01-20T06:21:55.163Z,54.75
2023-01-20T06:24:24.318Z,76.72
2023-01-20T06:26:52.309Z,78.85
2023-01-20T06:29:20.359Z,62.00
2023-01-20T06:31:48.302Z,75.65
2023-01-20T06:34:16.156Z,71.80
2023-01-20T06:36:43.898Z,87.47
2023-01-20T06:39:11.700Z,133.57
2023-01-20T06:41:40.872Z,74.10
2023-01-20T06:44:08.836Z,66.93
2023-01-20T06:46:36.619Z,59.60
2023-01-20T06:49:04.458Z,84.53
2023-01-20T06:51:33.396Z,58.50
2023-01-20T06:54:01.180Z,57.20
2023-01-20T06:56:28.971Z,46.70
2023-01-20T06:58:58.094Z,48.95
2023-01-20T07:01:28.191Z,58.83
2023-01-20T07:03:56.377Z,53.70
2023-01-20T07:06:29.564Z,62.15
2023-01-20T07:08:58.983Z,74.88
2023-01-20T07:11:27.416Z,69.10
2023-01-20T07:13:55.214Z,50.95
2023-01-20T07:16:24.461Z,40.80
2023-01-20T07:18:53.461Z,45.92
2023-01-20T07:21:24.575Z,49.92
2023-01-20T07:23:53.809Z,37.72
2023-01-20T07:26:24.154Z,41.78
2023-01-20T07:28:51.957Z,58.97
2023-01-20T07:31:22.875Z,50.85
2023-01-20T07:33:52.526Z,49.38
2023-01-20T07:36:20.543Z,71.93
2023-01-20T07:38:49.567Z,73.95
2023-01-20T07:41:19.702Z,69.57
2023-01-20T07:43:49.169Z,80.97
2023-01-20T07:46:17.854Z,62.83
2023-01-20T07:48:45.711Z,62.80
2023-01-20T07:51:16.681Z,71.65
2023-01-20T07:53:46.768Z,55.13
2023-01-20T07:56:16.600Z,57.55
2023-01-20T07:58:45.293Z,53.33
2023-01-20T08:01:15.390Z,51.97
2023-01-20T08:03:43.736Z,60.45
2023-01-20T08:06:14.630Z,43.88
2023-01-20T08:08:42.503Z,57.33
2023-01-20T08:11:13.587Z,47.85
2023-01-20T08:13:41.984Z,49.70
2023-01-20T08:16:11.489Z,52.33
2023-01-20T08:18:39.951Z,71.88
2023-01-20T08:21:17.410Z,51.50
2023-01-20T08:26:14.134Z,50.85
2023-01-20T08:28:41.953Z,51.90
2023-01-20T08:31:12.414Z,47.17
2023-01-20T08:33:42.188Z,63.33
2023-01-20T08:36:12.663Z,92.10
2023-01-20T08:38:41.485Z,63.33
2023-01-20T08:41:12.417Z,58.15
2023-01-20T08:43:40.421Z,56.38
2023-01-20T08:46:10.850Z,68.63
2023-01-20T08:48:40.462Z,60.50
2023-01-20T08:51:10.220Z,60.42
2023-01-20T08:53:38.076Z,59.40
2023-01-20T08:56:06.301Z,57.10
2023-01-20T08:58:35.631Z,62.47
2023-01-20T09:01:03.455Z,53.53
2023-01-20T09:03:33.100Z,52.13
2023-01-20T09:06:03.363Z,46.53
2023-01-20T09:08:31.220Z,50.00
2023-01-20T09:11:03.602Z,57.15
2023-01-20T09:13:31.380Z,70.80
2023-01-20T09:16:00.642Z,87.57
2023-01-20T09:18:28.747Z,66.25
2023-01-20T09:20:58.638Z,69.57
2023-01-20T09:23:26.804Z,117.95
2023-01-20T09:25:54.687Z,58.70
2023-01-20T09:28:22.482Z,79.90
2023-01-20T09:30:50.387Z,59.42
2023-01-20T09:33:19.557Z,99.25
2023-01-20T09:35:55.561Z,48.20
2023-01-20T09:38:40.912Z,63.72
2023-01-20T09:41:35.751Z,61.90
2023-01-20T09:44:15.738Z,56.53
2023-01-20T09:47:18.339Z,50.35
2023-01-20T09:50:16.847Z,50.72
2023-01-20T09:53:03.799Z,47.72
2023-01-20T09:55:41.714Z,49.97
2023-01-20T09:58:17.183Z,50.80
2023-01-20T10:00:50.535Z,60.75
2023-01-20T10:03:25.382Z,59.08
2023-01-20T10:05:59.511Z,71.38
2023-01-20T10:08:33.993Z,68.90
2023-01-20T10:11:07.366Z,57.17
2023-01-20T10:13:40.736Z,55.38
2023-01-20T10:16:13.641Z,79.13
2023-01-20T10:18:48.595Z,49.88
2023-01-20T10:21:23.432Z,61.67
2023-01-20T10:23:56.069Z,62.53
2023-01-20T10:26:31.226Z,77.15
2023-01-20T10:29:01.253Z,57.20
2023-01-20T10:31:31.922Z,74.03
2023-01-20T10:34:07.012Z,100.90
2023-01-20T10:36:36.299Z,68.13
2023-01-20T10:39:11.438Z,59.40
2023-01-20T10:41:43.080Z,52.63
2023-01-20T10:44:13.596Z,49.85
2023-01-20T10:46:59.656Z,57.53
2023-01-20T10:49:52.981Z,47.17
2023-01-20T10:52:39.998Z,37.55
2023-01-20T10:55:20.473Z,40.03
2023-01-20T10:57:52.576Z,39.47
2023-01-20T11:00:25.827Z,34.50
2023-01-20T11:02:54.194Z,46.55
2023-01-20T11:05:25.878Z,39.35
2023-01-20T11:07:57.658Z,34.75
2023-01-20T11:10:27.765Z,38.88
2023-01-20T11:12:58.147Z,48.92
2023-01-20T11:15:29.576Z,42.13
2023-01-20T11:18:29.408Z,40.55
2023-01-20T11:21:00.879Z,39.05
2023-01-20T11:26:10.084Z,58.95
2023-01-20T11:28:48.237Z,37.47
2023-01-20T11:31:16.694Z,45.10
2023-01-20T11:33:57.577Z,66.22
2023-01-20T11:36:26.860Z,40.83
2023-01-20T11:38:57.686Z,49.60
2023-01-20T11:41:27.510Z,58.05
2023-01-20T11:43:56.785Z,44.20
2023-01-20T11:46:30.628Z,40.58
2023-01-20T11:49:15.492Z,46.05
2023-01-20T11:51:53.191Z,35.83
2023-01-20T11:54:25.210Z,48.83
2023-01-20T11:56:56.669Z,42.47
2023-01-20T11:59:28.775Z,36.85
2023-01-20T12:02:01.898Z,35.38
2023-01-20T12:05:09.451Z,36.03
2023-01-20T12:07:42.901Z,39.90
2023-01-20T12:10:18.376Z,33.83
2023-01-20T12:12:51.936Z,36.70
2023-01-20T12:15:22.322Z,33.30
2023-01-20T12:17:57.937Z,33.65
2023-01-20T12:20:32.791Z,37.45
2023-01-20T12:23:15.070Z,31.65
2023-01-20T12:25:54.904Z,32.00
2023-01-20T12:28:27.633Z,31.60
2023-01-20T12:30:59.857Z,30.00
2023-01-20T12:33:31.482Z,33.03
2023-01-20T12:36:38.082Z,36.83
2023-01-20T12:39:29.409Z,35.90
2023-01-20T12:42:42.949Z,46.65
2023-01-20T12:45:22.024Z,37.17
2023-01-20T12:48:05.085Z,33.55
2023-01-20T12:50:44.723Z,33.60
2023-01-20T12:53:27.966Z,33.67
2023-01-20T12:56:10.450Z,48.38
2023-01-20T12:58:49.662Z,31.92
2023-01-20T13:01:48.758Z,47.70
2023-01-20T13:04:57.663Z,33.20
2023-01-20T13:07:49.758Z,35.03
2023-01-20T13:10:30.968Z,41.05
2023-01-20T13:13:05.041Z,32.85
2023-01-20T13:15:41.657Z,34.53
2023-01-20T13:18:28.594Z,32.30
2023-01-20T13:20:56.857Z,30.85
2023-01-20T13:23:27.391Z,30.77
2023-01-20T13:25:56.629Z,30.30
2023-01-20T13:28:27.169Z,27.90
2023-01-20T13:30:57.788Z,29.25
2023-01-20T13:33:37.948Z,28.27
2023-01-20T13:36:17.237Z,26.65
2023-01-20T13:38:46.028Z,30.00
2023-01-20T13:41:33.801Z,27.30
2023-01-20T13:44:03.565Z,24.35
2023-01-20T13:46:49.442Z,26.65
2023-01-20T13:49:42.847Z,27.83
2023-01-20T13:52:11.732Z,25.05
2023-01-20T13:54:47.776Z,26.25
2023-01-20T13:57:45.440Z,31.30
2023-01-20T14:00:18.767Z,24.58
2023-01-20T14:02:49.848Z,30.30
2023-01-20T14:05:26.358Z,25.35
2023-01-20T14:07:54.225Z,25.90
2023-01-20T14:10:22.097Z,25.13
2023-01-20T14:12:49.861Z,25.75
2023-01-20T14:15:40.078Z,24.90
2023-01-20T14:18:18.167Z,27.60
2023-01-20T14:20:58.619Z,26.38
2023-01-20T14:23:34.919Z,25.50
2023-01-20T14:26:14.650Z,23.70
2023-01-20T14:28:49.312Z,25.83
2023-01-20T14:31:24.666Z,28.98
2023-01-20T14:33:58.028Z,26.38
2023-01-20T14:36:30.744Z,30.85
2023-01-20T14:39:03.739Z,25.23
2023-01-20T14:41:34.571Z,27.48
2023-01-20T14:44:03.385Z,26.00
2023-01-20T14:46:33.659Z,28.08
2023-01-20T14:49:04.938Z,26.95
2023-01-20T14:51:34.291Z,26.63
2023-01-20T14:54:35.284Z,25.63
2023-01-20T14:57:13.570Z,23.58
2023-01-20T14:59:41.469Z,23.58
2023-01-20T15:02:19.549Z,24.20
2023-01-20T15:04:48.810Z,23.67
2023-01-20T15:07:20.349Z,24.83
2023-01-20T15:09:54.111Z,23.58
2023-01-20T15:12:42.472Z,23.58
2023-01-20T15:15:24.514Z,23.60
2023-01-20T15:18:21.658Z,25.27
2023-01-20T15:20:58.631Z,24.08
2023-01-20T15:23:38.157Z,22.27
2023-01-20T15:28:42.877Z,21.60
2023-01-20T15:31:15.440Z,22.10
2023-01-20T15:33:43.774Z,25.08
2023-01-20T15:36:22.263Z,21.25
2023-01-20T15:38:50.263Z,24.60
2023-01-20T15:41:18.490Z,23.50
2023-01-20T15:43:46.440Z,25.10
2023-01-20T15:46:15.406Z,23.40
2023-01-20T15:48:43.739Z,24.92
2023-01-20T15:51:15.537Z,22.83
2023-01-20T15:53:43.421Z,27.15
2023-01-20T15:56:17.589Z,24.25
2023-01-20T15:58:45.369Z,23.10
2023-01-20T16:01:15.445Z,24.23
2023-01-20T16:03:43.749Z,22.55
2023-01-20T16:06:15.023Z,23.00
2023-01-20T16:08:46.130Z,23.80
2023-01-20T16:11:14.541Z,24.25
2023-01-20T16:13:42.505Z,23.20
2023-01-20T16:16:13.434Z,23.00
2023-01-20T16:18:41.707Z,23.05
2023-01-20T16:21:11.735Z,23.08
2023-01-20T16:23:41.156Z,23.50
2023-01-20T16:26:19.529Z,21.52
2023-01-20T16:28:47.304Z,21.67
2023-01-20T16:31:15.283Z,22.02
2023-01-20T16:33:43.110Z,23.15
2023-01-20T16:36:12.967Z,20.92
2023-01-20T16:38:42.463Z,21.27
2023-01-20T16:41:15.333Z,22.20
2023-01-20T16:43:43.613Z,20.23
2023-01-20T16:46:14.316Z,20.45
2023-01-20T16:48:42.359Z,23.00
2023-01-20T16:51:13.366Z,22.63
2023-01-20T16:53:42.975Z,23.42
2023-01-20T16:56:15.048Z,23.40
2023-01-20T16:58:43.207Z,24.85
2023-01-20T17:01:13.051Z,24.48
2023-01-20T17:03:41.185Z,22.92
2023-01-20T17:06:12.429Z,24.55
2023-01-20T17:08:40.325Z,26.10
2023-01-20T17:11:09.445Z,24.52
2023-01-20T17:13:37.263Z,29.58
2023-01-20T17:16:05.756Z,26.40
2023-01-20T17:18:33.633Z,28.63
2023-01-20T17:21:05.214Z,26.00
2023-01-20T17:23:33.083Z,27.08
2023-01-20T17:26:02.944Z,30.98
2023-01-20T17:28:32.577Z,30.02
2023-01-20T17:31:02.296Z,32.03
2023-01-20T17:33:30.277Z,32.55
2023-01-20T17:35:58.592Z,30.73
2023-01-20T17:38:26.540Z,34.72
2023-01-20T17:40:54.313Z,34.03
2023-01-20T17:43:22.079Z,33.30
2023-01-20T17:45:51.253Z,32.92
2023-01-20T17:48:19.041Z,34.17
2023-01-20T17:50:46.852Z,37.50
2023-01-20T17:53:14.644Z,36.22
2023-01-20T17:55:43.489Z,37.42
2023-01-20T17:58:11.430Z,40.83
2023-01-20T18:00:39.253Z,39.78
2023-01-20T18:03:09.435Z,40.70
2023-01-20T18:05:37.324Z,37.90
2023-01-20T18:08:05.458Z,40.40
2023-01-20T18:10:33.303Z,38.97
2023-01-20T18:13:01.095Z,42.13
2023-01-20T18:15:29.077Z,37.85
2023-01-20T18:17:56.898Z,40.03
2023-01-20T18:20:26.065Z,40.72
2023-01-20T18:22:54.069Z,40.47
2023-01-20T18:25:21.919Z,45.28
2023-01-20T18:27:49.722Z,44.85
2023-01-20T18:30:18.333Z,44.75
2023-01-20T18:32:46.267Z,43.20
2023-01-20T18:35:14.195Z,48.75
2023-01-20T18:37:43.357Z,45.33
2023-01-20T18:40:12.369Z,49.38
2023-01-20T18:42:40.497Z,46.00
2023-01-20T18:45:09.232Z,47.72
2023-01-20T18:47:37.107Z,42.72
2023-01-20T18:50:05.366Z,46.97
2023-01-20T18:52:33.266Z,50.60
2023-01-20T18:55:02.516Z,49.58
2023-01-20T18:57:30.336Z,44.13
2023-01-20T18:59:58.156Z,45.72
2023-01-20T19:02:26.884Z,43.03
2023-01-20T19:04:54.714Z,43.60
2023-01-20T19:07:22.602Z,45.05
2023-01-20T19:09:50.450Z,46.03
2023-01-20T19:12:19.601Z,45.83
2023-01-20T19:14:47.420Z,44.92
2023-01-20T19:17:15.233Z,44.38
2023-01-20T19:19:46.569Z,46.35
2023-01-20T19:22:14.386Z,43.83
2023-01-20T19:24:42.314Z,45.90
2023-01-20T19:27:10.056Z,49.80
2023-01-20T19:29:40.976Z,49.33
2023-01-20T19:32:09.068Z,45.70
2023-01-20T19:34:37.095Z,47.05
2023-01-20T19:37:04.913Z,48.58
2023-01-20T19:39:32.815Z,50.80
2023-01-20T19:42:00.691Z,47.63
2023-01-20T19:44:28.794Z,48.28
2023-01-20T19:47:02.434Z,48.40
2023-01-20T19:49:30.288Z,51.42
2023-01-20T19:51:59.669Z,50.75
2023-01-20T19:54:28.571Z,45.88
2023-01-20T19:56:56.439Z,46.15
2023-01-20T19:59:24.244Z,46.42
2023-01-20T20:01:52.252Z,47.05
2023-01-20T20:04:23.987Z,51.03
2023-01-20T20:06:52.090Z,48.75
2023-01-20T20:09:23.292Z,43.83
2023-01-20T20:11:51.397Z,44.55
2023-01-20T20:14:22.249Z,43.22
2023-01-20T20:16:51.085Z,48.75
2023-01-20T20:19:21.371Z,44.97
2023-01-20T20:21:49.573Z,47.13
2023-01-20T20:24:18.970Z,50.00
2023-01-20T20:26:47.955Z,47.88
2023-01-20T20:29:18.356Z,46.17
2023-01-20T20:31:46.696Z,48.70
2023-01-20T20:34:16.650Z,51.30
2023-01-20T20:36:45.937Z,49.20
2023-01-20T20:39:15.351Z,55.13
2023-01-20T20:41:43.360Z,47.10
2023-01-20T20:44:12.153Z,45.08
2023-01-20T20:46:40.174Z,39.47
2023-01-20T20:49:08.062Z,49.20
2023-01-20T20:51:35.870Z,49.03
2023-01-20T20:54:05.157Z,49.53
2023-01-20T20:56:33.318Z,47.33
2023-01-20T20:59:03.714Z,48.28
2023-01-20T21:01:33.882Z,45.70
2023-01-20T21:04:02.197Z,48.83
2023-01-20T21:06:30.547Z,47.80
2023-01-20T21:08:59.277Z,44.00
2023-01-20T21:11:28.871Z,44.17
2023-01-20T21:13:57.029Z,44.45
2023-01-20T21:16:26.251Z,41.92
2023-01-20T21:18:56.136Z,42.35
2023-01-20T21:21:24.788Z,44.17
2023-01-20T21:23:54.140Z,39.92
2023-01-20T21:26:22.746Z,44.95
2023-01-20T21:28:51.884Z,47.17
2023-01-20T21:31:21.865Z,40.50
2023-01-20T21:33:54.068Z,47.20
2023-01-20T21:36:23.169Z,41.80
2023-01-20T21:38:51.871Z,43.78
2023-01-20T21:41:20.238Z,47.13
2023-01-20T21:44:06.444Z,47.33
2023-01-20T21:46:39.083Z,42.90
2023-01-20T21:49:25.294Z,46.55
2023-01-20T21:52:10.759Z,47.10
2023-01-20T21:54:41.217Z,47.88
2023-01-20T21:57:09.502Z,40.63
2023-01-20T21:59:37.500Z,45.03
2023-01-20T22:02:07.333Z,44.50
2023-01-20T22:04:36.079Z,44.70
2023-01-20T22:07:04.013Z,43.60
2023-01-20T22:09:31.902Z,48.90
2023-01-20T22:11:59.702Z,48.45
2023-01-20T22:14:27.552Z,44.45
2023-01-20T22:16:55.339Z,44.90
2023-01-20T22:19:24.685Z,49.67
2023-01-20T22:21:52.562Z,43.35
2023-01-20T22:24:20.598Z,46.17
2023-01-20T22:26:49.023Z,46.33
2023-01-20T22:29:17.619Z,44.58
2023-01-20T22:31:45.575Z,45.53
2023-01-20T22:34:13.948Z,49.00
2023-01-20T22:36:43.193Z,48.03
2023-01-20T22:39:12.773Z,45.53
2023-01-20T22:41:41.162Z,48.65
2023-01-20T22:44:09.052Z,48.15
2023-01-20T22:46:36.948Z,46.20
2023-01-20T22:49:05.058Z,51.17
2023-01-20T22:51:33.134Z,57.40
2023-01-20T22:54:03.024Z,57.30
2023-01-20T22:56:32.568Z,56.20
2023-01-20T22:59:01.483Z,51.28
2023-01-20T23:01:31.270Z,55.65
2023-01-20T23:04:01.207Z,57.03
2023-01-20T23:06:32.528Z,60.65
2023-01-20T23:11:29.656Z,52.17
2023-01-20T23:13:58.194Z,57.30
2023-01-20T23:16:25.984Z,52.58
2023-01-20T23:18:53.864Z,63.17
2023-01-20T23:21:22.195Z,59.22
2023-01-20T23:23:54.348Z,57.58
2023-01-20T23:26:24.145Z,51.45
2023-01-20T23:28:54.192Z,55.05
2023-01-20T23:31:24.091Z,54.95
2023-01-20T23:33:53.812Z,55.80
2023-01-20T23:36:24.002Z,53.55
2023-01-20T23:38:54.385Z,51.28
2023-01-20T23:41:22.909Z,47.67
2023-01-20T23:43:50.754Z,53.45
2023-01-20T23:46:19.993Z,47.28
2023-01-20T23:48:48.329Z,48.53
2023-01-20T23:51:16.898Z,45.53
2023-01-20T23:53:45.193Z,50.33
2023-01-20T23:56:15.256Z,51.13
2023-01-20T23:58:43.501Z,47.13
